Time;durP1;ratioP1;P1;durP2;ratioP2;P2;SDS_P1;SDS_P2;PMS_P1;PMS_P2;Temp;Humidity;BMP_temperature;BMP_pressure;BME280_temperature;BME280_humidity;BME280_pressure;Samples;Min_cycle;Max_cycle;Signal;HPM_P1;HPM_P2
2023/06/17 00:01:48;;;;;;;0.00;0.00;;;;;;;24.99;40.55;101714.69;5013156;28;20030;-77
2023/06/17 00:04:14;;;;;;;0.00;0.00;;;;;;;25.05;40.20;101712.69;5012550;28;20026;-77
2023/06/17 00:06:39;;;;;;;0.10;0.10;;;;;;;25.08;40.34;101712.88;5012598;28;20042;-77
2023/06/17 00:09:04;;;;;;;0.10;0.10;;;;;;;24.95;40.70;101713.66;5012162;28;20050;-78
2023/06/17 00:11:30;;;;;;;0.10;0.10;;;;;;;24.94;40.88;101711.22;5011508;28;20033;-78
2023/06/17 00:13:56;;;;;;;0.03;0.03;;;;;;;24.93;41.09;101704.91;5012272;28;20034;-75
2023/06/17 00:16:22;;;;;;;0.10;0.10;;;;;;;24.77;41.44;101706.25;5012991;28;20100;-76
2023/06/17 00:18:47;;;;;;;0.00;0.00;;;;;;;24.64;42.01;101706.97;5012466;28;20144;-76
2023/06/17 00:21:13;;;;;;;0.00;0.00;;;;;;;24.76;42.40;101695.56;5012300;28;20037;-78
2023/06/17 00:23:39;;;;;;;0.03;0.03;;;;;;;24.76;42.54;101693.63;5012117;28;20056;-77
2023/06/17 00:26:05;;;;;;;0.00;0.00;;;;;;;24.73;42.78;101693.38;5011316;28;20034;-78
2023/06/17 00:28:30;;;;;;;0.00;0.00;;;;;;;24.68;42.91;101693.44;5011278;28;20026;-77
2023/06/17 00:30:55;;;;;;;0.00;0.00;;;;;;;24.53;43.91;101697.22;5012123;28;20092;-75
2023/06/17 00:33:21;;;;;;;0.00;0.00;;;;;;;24.29;44.16;101697.28;5012855;28;20060;-79
2023/06/17 00:35:46;;;;;;;0.00;0.00;;;;;;;24.39;44.59;101699.09;5012446;28;20038;-78
2023/06/17 00:38:12;;;;;;;0.00;0.00;;;;;;;24.36;44.58;101702.44;5012456;28;20077;-76
2023/06/17 00:40:37;;;;;;;0.13;0.10;;;;;;;24.09;45.61;101688.53;5013096;28;20116;-76
2023/06/17 00:43:03;;;;;;;0.10;0.10;;;;;;;24.39;43.85;101697.16;5011957;28;20072;-77
2023/06/17 00:45:28;;;;;;;0.08;0.08;;;;;;;24.10;44.82;101687.41;5011970;28;20026;-78
2023/06/17 00:47:54;;;;;;;0.10;0.10;;;;;;;24.02;44.88;101685.31;5012054;28;20463;-78
2023/06/17 00:50:19;;;;;;;0.10;0.10;;;;;;;24.03;44.99;101693.28;5012291;28;20046;-76
2023/06/17 00:52:47;;;;;;;0.00;0.00;;;;;;;24.00;45.31;101693.00;5012337;28;20041;-77
2023/06/17 00:55:13;;;;;;;0.10;0.10;;;;;;;23.94;45.07;101681.25;5010591;28;20037;-78
2023/06/17 00:57:39;;;;;;;0.10;0.10;;;;;;;23.89;44.62;101681.34;5011999;28;20064;-77
2023/06/17 01:00:09;;;;;;;0.10;0.10;;;;;;;23.87;44.68;101688.22;5015938;28;20045;-77
2023/06/17 01:02:39;;;;;;;0.10;0.10;;;;;;;23.78;44.25;101690.81;5015997;28;20037;-78
2023/06/17 01:05:11;;;;;;;0.08;0.08;;;;;;;23.63;45.26;101696.44;5015406;28;20025;-78
2023/06/17 01:07:57;;;;;;;0.10;0.10;;;;;;;23.74;44.98;101689.75;5015722;28;20048;-79
2023/06/17 01:10:35;;;;;;;0.00;0.00;;;;;;;23.81;44.57;101683.91;5015991;28;20046;-78
2023/06/17 01:13:03;;;;;;;0.05;0.05;;;;;;;23.66;44.62;101675.84;5015829;28;20092;-80
2023/06/17 01:15:33;;;;;;;0.08;0.08;;;;;;;23.57;45.07;101689.38;5015582;28;20557;-78
2023/06/17 01:17:58;;;;;;;0.10;0.10;;;;;;;23.78;44.19;101677.09;5014995;28;20034;-77
2023/06/17 01:20:26;;;;;;;0.10;0.10;;;;;;;23.59;44.68;101675.41;5014139;28;20042;-76
2023/06/17 01:22:54;;;;;;;0.10;0.10;;;;;;;23.52;45.04;101672.97;5015663;28;20421;-76
2023/06/17 01:25:20;;;;;;;0.10;0.10;;;;;;;23.83;44.40;101659.72;5015493;28;20030;-79
2023/06/17 01:27:49;;;;;;;0.10;0.10;;;;;;;23.69;45.02;101659.59;5015423;28;20525;-78
2023/06/17 01:30:15;;;;;;;0.10;0.10;;;;;;;23.72;45.07;101653.56;5015327;28;20040;-76
2023/06/17 01:32:40;;;;;;;0.10;0.10;;;;;;;23.81;44.42;101649.03;5014670;28;20098;-77
2023/06/17 01:35:09;;;;;;;0.10;0.10;;;;;;;23.75;45.41;101652.13;5014538;28;20033;-78
2023/06/17 01:37:45;;;;;;;0.00;0.00;;;;;;;23.64;46.11;101662.41;5013379;28;20046;-76
2023/06/17 01:40:13;;;;;;;0.10;0.10;;;;;;;23.52;45.74;101659.25;5013865;28;20763;-76
2023/06/17 01:42:43;;;;;;;0.10;0.10;;;;;;;23.53;46.12;101653.47;5013053;28;20084;-77
2023/06/17 01:45:10;;;;;;;0.00;0.00;;;;;;;23.62;45.73;101653.66;5014260;28;20052;-78
2023/06/17 01:47:35;;;;;;;0.10;0.10;;;;;;;23.66;46.03;101651.16;5014627;28;20108;-77
2023/06/17 01:50:03;;;;;;;0.10;0.10;;;;;;;23.61;46.54;101651.19;5014449;28;20037;-78
2023/06/17 01:52:29;;;;;;;0.00;0.00;;;;;;;23.46;46.62;101657.69;5013686;28;20481;-76
2023/06/17 01:54:56;;;;;;;0.10;0.10;;;;;;;23.54;46.41;101659.78;5014143;28;20041;-78
2023/06/17 01:57:21;;;;;;;0.03;0.00;;;;;;;23.74;45.41;101661.47;5014583;28;20124;-77
2023/06/17 01:59:47;;;;;;;0.00;0.00;;;;;;;23.31;46.36;101671.56;5014063;28;20120;-76
2023/06/17 02:02:13;;;;;;;0.10;0.10;;;;;;;23.35;47.26;101678.91;5013292;28;20030;-77
2023/06/17 02:04:38;;;;;;;0.00;0.00;;;;;;;23.63;46.83;101679.16;5014373;28;20018;-77
2023/06/17 02:07:04;;;;;;;0.08;0.08;;;;;;;23.43;47.26;101677.44;5014042;28;20104;-78
2023/06/17 02:09:29;;;;;;;0.00;0.00;;;;;;;23.47;47.30;101682.06;5012003;28;20056;-75
2023/06/17 02:11:55;;;;;;;0.00;0.00;;;;;;;23.50;46.58;101687.00;5013484;28;20114;-76
2023/06/17 02:14:20;;;;;;;0.10;0.10;;;;;;;23.35;47.87;101680.84;5013718;28;20038;-77
2023/06/17 02:16:47;;;;;;;0.10;0.10;;;;;;;23.43;47.53;101682.94;5014382;28;20030;-77
2023/06/17 02:19:12;;;;;;;0.10;0.10;;;;;;;23.47;46.71;101678.50;5014019;28;20052;-80
2023/06/17 02:21:38;;;;;;;0.00;0.00;;;;;;;23.32;46.71;101685.00;5011991;28;20470;-76
2023/06/17 02:24:04;;;;;;;0.10;0.10;;;;;;;23.35;46.62;101667.94;5013463;28;20029;-77
2023/06/17 02:26:31;;;;;;;0.00;0.00;;;;;;;23.20;47.29;101672.72;5013083;28;20029;-78
2023/06/17 02:28:56;;;;;;;0.10;0.10;;;;;;;23.05;47.84;101668.22;5012928;28;20030;-77
2023/06/17 02:31:22;;;;;;;0.00;0.00;;;;;;;22.97;47.77;101673.50;5014520;28;20453;-76
2023/06/17 02:33:47;;;;;;;0.00;0.00;;;;;;;23.23;47.44;101663.94;5013757;28;20050;-77
2023/06/17 02:36:14;;;;;;;0.00;0.00;;;;;;;23.17;47.10;101662.34;5014306;28;20041;-76
2023/06/17 02:38:40;;;;;;;0.10;0.10;;;;;;;22.99;47.42;101663.88;5013922;28;20033;-77
2023/06/17 02:41:05;;;;;;;0.10;0.10;;;;;;;22.97;47.72;101655.13;5012139;28;20128;-77
2023/06/17 02:43:31;;;;;;;0.10;0.10;;;;;;;22.74;48.21;101650.41;5014675;28;20021;-76
2023/06/17 02:45:57;;;;;;;0.05;0.05;;;;;;;22.74;48.72;101653.13;5014305;28;20034;-78
2023/06/17 02:48:23;;;;;;;0.00;0.00;;;;;;;22.61;48.39;101654.59;5014230;28;20042;-79
2023/06/17 02:50:48;;;;;;;0.08;0.08;;;;;;;22.77;48.22;101648.97;5012726;28;20566;-77
2023/06/17 02:53:15;;;;;;;0.10;0.10;;;;;;;22.47;49.37;101655.47;5013825;28;20034;-77
2023/06/17 02:55:45;;;;;;;0.10;0.10;;;;;;;22.80;47.57;101651.16;5014132;28;20069;-76
2023/06/17 02:58:18;;;;;;;0.10;0.10;;;;;;;22.79;48.07;101641.28;5013950;28;20080;-75
2023/06/17 03:00:45;;;;;;;0.10;0.10;;;;;;;22.59;48.67;101643.09;5013148;28;20518;-75
2023/06/17 03:03:10;;;;;;;0.10;0.10;;;;;;;22.85;48.32;101640.97;5013535;28;20506;-77
2023/06/17 03:05:38;;;;;;;0.10;0.10;;;;;;;22.69;48.96;101640.28;5013253;28;20167;-77
2023/06/17 03:08:06;;;;;;;0.10;0.10;;;;;;;22.79;48.51;101635.81;5039992;28;20076;-77
2023/06/17 03:10:32;;;;;;;0.10;0.10;;;;;;;22.66;48.30;101637.31;5053432;28;20037;-77
2023/06/17 03:12:57;;;;;;;0.10;0.10;;;;;;;22.62;48.76;101637.03;5053456;28;20405;-77
2023/06/17 03:15:23;;;;;;;0.10;0.10;;;;;;;22.64;48.56;101642.25;5052544;28;20045;-77
2023/06/17 03:17:49;;;;;;;0.00;0.00;;;;;;;22.65;49.00;101641.97;5052699;28;20610;-78
2023/06/17 03:20:15;;;;;;;0.10;0.10;;;;;;;22.68;49.38;101640.56;5052276;28;20102;-77
2023/06/17 03:22:41;;;;;;;0.08;0.08;;;;;;;22.55;49.04;101638.44;5061844;28;20059;-78
2023/06/17 03:25:08;;;;;;;0.10;0.10;;;;;;;22.79;48.74;101639.38;5072579;28;20564;-77
2023/06/17 03:27:35;;;;;;;0.00;0.00;;;;;;;22.50;49.24;101639.31;5072750;28;20036;-78
2023/06/17 03:30:01;;;;;;;0.10;0.10;;;;;;;22.63;49.93;101641.44;5054827;28;20090;-78
2023/06/17 03:32:26;;;;;;;0.00;0.00;;;;;;;22.64;49.96;101640.31;5072790;28;20035;-75
2023/06/17 03:34:52;;;;;;;0.10;0.10;;;;;;;22.60;50.50;101644.72;5055187;28;20020;-76
2023/06/17 03:37:19;;;;;;;0.00;0.00;;;;;;;22.49;50.73;101639.56;5072106;28;20032;-76
2023/06/17 03:39:45;;;;;;;0.10;0.10;;;;;;;22.50;50.45;101644.78;5072325;28;20094;-78
2023/06/17 03:42:10;;;;;;;0.10;0.10;;;;;;;22.28;51.08;101640.81;5072140;28;20052;-75
2023/06/17 03:44:35;;;;;;;0.10;0.10;;;;;;;22.53;50.51;101641.47;5072803;28;20496;-75
2023/06/17 03:47:02;;;;;;;0.13;0.13;;;;;;;22.54;50.68;101643.09;5072463;28;20025;-78
2023/06/17 03:49:27;;;;;;;0.10;0.10;;;;;;;22.52;51.11;101639.84;5072846;28;20115;-75
2023/06/17 03:51:53;;;;;;;0.03;0.03;;;;;;;22.64;50.72;101637.56;5072530;28;20033;-76
2023/06/17 03:54:18;;;;;;;0.10;0.10;;;;;;;22.67;51.09;101636.19;5050413;28;20041;-76
2023/06/17 03:56:44;;;;;;;0.10;0.10;;;;;;;22.55;51.40;101638.44;5052328;28;20388;-77
2023/06/17 03:59:10;;;;;;;0.08;0.08;;;;;;;22.52;51.70;101633.53;5052035;28;20032;-78
2023/06/17 04:01:36;;;;;;;0.10;0.10;;;;;;;22.84;50.95;101644.00;5050586;28;20056;-76
2023/06/17 04:04:01;;;;;;;0.10;0.10;;;;;;;22.53;51.00;101638.72;5051643;28;20507;-76
2023/06/17 04:06:27;;;;;;;0.10;0.10;;;;;;;22.58;51.45;101635.16;5033426;28;20041;-76
2023/06/17 04:08:53;;;;;;;0.10;0.10;;;;;;;22.59;51.16;101634.06;5051584;28;20040;-75
2023/06/17 04:11:19;;;;;;;0.10;0.10;;;;;;;22.56;51.18;101637.34;5051342;28;20072;-75
2023/06/17 04:13:44;;;;;;;0.10;0.10;;;;;;;22.85;50.30;101637.41;5052770;28;20056;-75
2023/06/17 04:16:10;;;;;;;0.00;0.00;;;;;;;22.69;50.60;101640.28;5052041;28;20060;-76
2023/06/17 04:18:35;;;;;;;0.10;0.10;;;;;;;22.84;50.53;101639.31;5051030;28;20033;-75
2023/06/17 04:21:01;;;;;;;0.10;0.10;;;;;;;22.98;50.01;101632.06;5051919;28;20048;-77
2023/06/17 04:23:27;;;;;;;0.10;0.10;;;;;;;23.01;50.23;101631.50;5051907;28;20119;-76
2023/06/17 04:25:52;;;;;;;0.00;0.00;;;;;;;22.90;50.75;101632.69;5052293;28;20492;-78
2023/06/17 04:28:17;;;;;;;0.08;0.08;;;;;;;23.08;50.80;101631.97;5051998;28;20086;-79
2023/06/17 04:30:45;;;;;;;0.00;0.00;;;;;;;23.16;49.79;101641.50;5051902;28;20025;-78
2023/06/17 04:33:12;;;;;;;0.15;0.10;;;;;;;23.23;50.04;101634.56;5050642;28;20029;-79
2023/06/17 04:35:41;;;;;;;0.10;0.10;;;;;;;23.26;49.81;101647.72;5051762;28;20400;-77
2023/06/17 04:38:07;;;;;;;0.10;0.10;;;;;;;22.97;50.67;101640.59;5049429;28;20037;-77
2023/06/17 04:40:33;;;;;;;0.10;0.10;;;;;;;23.16;50.03;101638.75;5052026;28;20448;-80
2023/06/17 04:42:59;;;;;;;0.10;0.10;;;;;;;23.28;50.13;101644.66;5051796;28;20132;-76
2023/06/17 04:45:25;;;;;;;0.10;0.10;;;;;;;23.47;49.76;101637.34;5034123;28;20616;-78
2023/06/17 04:47:50;;;;;;;0.10;0.10;;;;;;;23.44;50.10;101638.78;5051528;28;20036;-77
2023/06/17 04:50:16;;;;;;;0.10;0.10;;;;;;;23.24;50.88;101643.63;5034032;28;20047;-76
2023/06/17 04:52:50;;;;;;;0.10;0.10;;;;;;;23.24;51.33;101646.34;5051870;28;20124;-76
2023/06/17 04:55:18;;;;;;;0.10;0.10;;;;;;;23.51;50.93;101644.72;5051781;28;20037;-76
2023/06/17 04:57:44;;;;;;;0.10;0.10;;;;;;;23.65;50.46;101644.84;5051716;28;20033;-75
2023/06/17 05:00:11;;;;;;;0.00;0.00;;;;;;;23.18;52.27;101653.81;5051399;28;20029;-77
2023/06/17 05:02:39;;;;;;;0.10;0.10;;;;;;;23.72;50.69;101641.75;5051589;28;20086;-76
2023/06/17 05:05:06;;;;;;;0.10;0.10;;;;;;;23.94;50.13;101636.53;5051407;28;20112;-77
2023/06/17 05:07:32;;;;;;;0.10;0.10;;;;;;;23.82;50.74;101649.84;5033310;28;20049;-75
2023/06/17 05:09:58;;;;;;;0.10;0.10;;;;;;;23.96;50.85;101637.06;5051373;28;20041;-77
2023/06/17 05:12:23;;;;;;;0.10;0.10;;;;;;;24.19;49.66;101637.03;5051206;28;20056;-77
2023/06/17 05:14:48;;;;;;;0.10;0.10;;;;;;;23.53;52.53;101645.25;5051418;28;20044;-76
2023/06/17 05:17:14;;;;;;;0.10;0.10;;;;;;;23.79;51.39;101642.19;5042778;28;20030;-77
2023/06/17 05:19:39;;;;;;;0.10;0.10;;;;;;;23.59;52.53;101637.75;5051114;28;20037;-76
2023/06/17 05:22:05;;;;;;;0.10;0.10;;;;;;;23.49;53.09;101637.88;5051039;28;20517;-75
2023/06/17 05:24:30;;;;;;;0.10;0.10;;;;;;;23.54;53.42;101632.34;5050677;28;20040;-75
2023/06/17 05:26:56;;;;;;;0.00;0.00;;;;;;;23.72;52.93;101644.50;5050933;28;20037;-75
2023/06/17 05:29:22;;;;;;;0.10;0.10;;;;;;;23.45;54.36;101645.06;5050934;28;20087;-77
2023/06/17 05:31:47;;;;;;;0.08;0.08;;;;;;;23.52;54.56;101645.53;5033312;28;20104;-76
2023/06/17 05:34:13;;;;;;;0.10;0.10;;;;;;;23.77;53.41;101638.94;5050735;28;20040;-76
2023/06/17 05:36:38;;;;;;;0.10;0.10;;;;;;;24.04;53.46;101641.88;5050303;28;20088;-77
2023/06/17 05:39:03;;;;;;;0.10;0.10;;;;;;;24.49;52.22;101637.69;5032435;28;20112;-77
2023/06/17 05:41:29;;;;;;;0.10;0.10;;;;;;;24.44;53.11;101635.81;5050675;28;20095;-77
2023/06/17 05:43:54;;;;;;;0.10;0.10;;;;;;;23.96;54.94;101642.53;5032679;28;20476;-74
2023/06/17 05:46:20;;;;;;;0.10;0.10;;;;;;;23.71;56.19;101649.16;5054928;28;20079;-75
2023/06/17 05:48:45;;;;;;;0.10;0.10;;;;;;;24.26;55.27;101640.22;5054467;28;20033;-75
2023/06/17 05:51:11;;;;;;;0.00;0.00;;;;;;;24.37;54.88;101638.94;5054357;28;20558;-78
2023/06/17 05:53:36;;;;;;;0.03;0.03;;;;;;;24.92;53.08;101641.94;5036699;28;20037;-77
2023/06/17 05:56:07;;;;;;;0.10;0.10;;;;;;;24.18;55.82;101646.38;5053792;28;20079;-75
2023/06/17 05:58:32;;;;;;;;;;;;;;;24.71;55.16;101648.84;5055405;28;20033;-77
2023/06/17 06:00:57;;;;;;;0.10;0.10;;;;;;;23.67;57.91;101648.09;5053769;28;19974;-74
2023/06/17 06:03:23;;;;;;;0.10;0.10;;;;;;;24.36;55.67;101637.31;5035410;28;20064;-76
2023/06/17 06:05:51;;;;;;;0.10;0.10;;;;;;;24.37;56.74;101649.94;5035540;28;20075;-76
2023/06/17 06:08:17;;;;;;;0.10;0.10;;;;;;;24.42;57.07;101652.63;5053697;28;20040;-74
2023/06/17 06:10:42;;;;;;;0.10;0.10;;;;;;;25.04;54.56;101647.78;5053848;28;20131;-76
2023/06/17 06:13:08;;;;;;;0.03;0.03;;;;;;;24.52;56.46;101654.38;5054455;28;20055;-74
2023/06/17 06:15:34;;;;;;;0.05;0.05;;;;;;;25.43;53.63;101652.88;5036052;28;20049;-77
2023/06/17 06:17:59;;;;;;;0.03;0.03;;;;;;;24.98;55.13;101646.25;5023969;28;20037;-76
2023/06/17 06:20:34;;;;;;;0.08;0.08;;;;;;;24.80;56.25;101653.44;5035837;28;20036;-75
2023/06/17 06:23:00;;;;;;;0.00;0.00;;;;;;;24.44;57.38;101652.31;5053001;28;20029;-75
2023/06/17 06:25:26;;;;;;;0.10;0.10;;;;;;;24.09;59.10;101653.66;5036584;28;20107;-77
2023/06/17 06:27:54;;;;;;;0.00;0.00;;;;;;;25.29;55.36;101652.81;5036476;28;20119;-80
2023/06/17 06:30:25;;;;;;;0.00;0.00;;;;;;;24.76;57.18;101652.38;5052507;28;20029;-76
2023/06/17 06:32:51;;;;;;;0.03;0.03;;;;;;;24.97;56.16;101645.41;5053563;28;20044;-77
2023/06/17 06:35:16;;;;;;;0.00;0.00;;;;;;;25.22;55.83;101641.38;5035329;28;20040;-77
2023/06/17 06:37:42;;;;;;;0.10;0.10;;;;;;;25.64;54.47;101646.66;5036179;28;20078;-76
2023/06/17 06:40:08;;;;;;;0.10;0.10;;;;;;;24.64;58.03;101646.50;5052780;28;20029;-78
2023/06/17 06:42:33;;;;;;;0.00;0.00;;;;;;;24.99;57.37;101645.13;5053616;28;20037;-76
2023/06/17 06:44:59;;;;;;;0.10;0.10;;;;;;;24.75;58.32;101644.41;5035799;28;20132;-74
2023/06/17 06:47:24;;;;;;;0.00;0.00;;;;;;;24.82;58.57;101642.13;5034969;28;20509;-76
2023/06/17 06:49:50;;;;;;;0.10;0.10;;;;;;;24.57;59.26;101645.25;5035747;28;20066;-77
2023/06/17 06:52:15;;;;;;;0.00;0.00;;;;;;;24.70;59.21;101647.22;5034844;28;20033;-75
2023/06/17 06:54:41;;;;;;;0.00;0.00;;;;;;;25.03;58.36;101648.91;5041214;28;20098;-78
2023/06/17 06:57:06;;;;;;;0.00;0.00;;;;;;;25.33;56.88;101650.28;5022470;28;20567;-78
2023/06/17 06:59:32;;;;;;;0.00;0.00;;;;;;;25.48;57.07;101653.59;5052258;28;20033;-78
2023/06/17 07:01:57;;;;;;;0.00;0.00;;;;;;;25.61;56.11;101655.53;5052803;28;20484;-75
2023/06/17 07:04:22;;;;;;;0.00;0.00;;;;;;;26.15;54.91;101654.69;5053156;28;20099;-77
2023/06/17 07:06:48;;;;;;;0.00;0.00;;;;;;;25.21;57.62;101651.59;5052731;28;20025;-75
2023/06/17 07:09:13;;;;;;;0.03;0.03;;;;;;;25.77;56.38;101653.28;5052216;28;20048;-76
2023/06/17 07:11:39;;;;;;;0.00;0.00;;;;;;;25.42;56.78;101656.72;5052390;28;20064;-78
2023/06/17 07:14:04;;;;;;;0.00;0.00;;;;;;;25.30;57.28;101657.19;5051997;28;20032;-74
2023/06/17 07:16:30;;;;;;;0.00;0.00;;;;;;;25.72;55.96;101658.91;5053391;28;20044;-77
2023/06/17 07:18:55;;;;;;;0.10;0.10;;;;;;;26.05;54.76;101657.63;5052479;28;20413;-77
2023/06/17 07:21:20;;;;;;;0.05;0.05;;;;;;;26.39;53.94;101666.28;5052366;28;20037;-76
2023/06/17 07:23:46;;;;;;;0.10;0.10;;;;;;;25.55;55.75;101675.22;5052684;28;20025;-76
2023/06/17 07:26:11;;;;;;;0.00;0.00;;;;;;;25.85;54.82;101669.06;5071955;28;20086;-74
2023/06/17 07:28:37;;;;;;;0.00;0.00;;;;;;;26.09;54.36;101664.19;5073063;28;20024;-76
2023/06/17 07:31:02;;;;;;;0.00;0.00;;;;;;;26.34;53.10;101669.13;5072336;28;20029;-76
2023/06/17 07:33:27;;;;;;;0.00;0.00;;;;;;;27.38;49.73;101660.53;5053870;28;20040;-75
2023/06/17 07:35:53;;;;;;;0.00;0.00;;;;;;;26.53;52.47;101664.28;5072035;28;20028;-76
2023/06/17 07:38:18;;;;;;;0.00;0.00;;;;;;;26.34;53.47;101663.63;5072217;28;20029;-78
2023/06/17 07:40:46;;;;;;;0.00;0.00;;;;;;;26.54;52.67;101660.41;5072676;28;20081;-77
2023/06/17 07:43:12;;;;;;;0.00;0.00;;;;;;;26.46;52.90;101657.56;5071978;28;20033;-79
2023/06/17 07:45:37;;;;;;;0.00;0.00;;;;;;;26.91;51.21;101654.53;5054247;28;20033;-76
2023/06/17 07:48:03;;;;;;;0.00;0.00;;;;;;;26.56;52.01;101651.81;5053902;28;20033;-77
2023/06/17 07:50:28;;;;;;;0.00;0.00;;;;;;;27.08;50.29;101664.06;5060703;28;20130;-74
2023/06/17 07:52:54;;;;;;;0.00;0.00;;;;;;;26.09;53.89;101658.69;5051899;28;20021;-75
2023/06/17 07:55:20;;;;;;;0.00;0.00;;;;;;;25.91;54.55;101648.56;5051777;28;20063;-78
2023/06/17 07:57:48;;;;;;;0.00;0.00;;;;;;;26.47;52.90;101660.03;5033160;28;20045;-75
2023/06/17 08:00:14;;;;;;;0.00;0.00;;;;;;;26.45;52.94;101658.69;5051448;28;20090;-74
2023/06/17 08:02:40;;;;;;;0.00;0.00;;;;;;;26.76;51.56;101656.88;5051295;28;20139;-76
2023/06/17 08:05:06;;;;;;;0.00;0.00;;;;;;;26.92;50.85;101650.66;5055899;28;20016;-77
2023/06/17 08:07:32;;;;;;;0.00;0.00;;;;;;;27.19;50.42;101657.13;5050094;28;20102;-77
2023/06/17 08:09:57;;;;;;;0.00;0.00;;;;;;;26.60;52.35;101650.88;5049576;28;20037;-75
2023/06/17 08:12:22;;;;;;;0.00;0.00;;;;;;;27.42;50.29;101644.97;5051392;28;20040;-75
2023/06/17 08:14:48;;;;;;;0.00;0.00;;;;;;;27.61;48.87;101646.34;5032525;28;20041;-73
2023/06/17 08:17:13;;;;;;;0.00;0.00;;;;;;;27.25;50.48;101644.81;5054027;28;20424;-73
2023/06/17 08:19:38;;;;;;;0.10;0.00;;;;;;;27.50;49.79;101646.91;5057000;28;20526;-73
2023/06/17 08:22:04;;;;;;;0.00;0.00;;;;;;;27.24;50.11;101649.56;5050712;28;20025;-73
2023/06/17 08:24:30;;;;;;;0.00;0.00;;;;;;;26.66;50.67;101641.34;5051053;28;20112;-72
2023/06/17 08:26:55;;;;;;;0.00;0.00;;;;;;;27.36;49.09;101647.03;5050751;28;20182;-73
2023/06/17 08:29:21;;;;;;;0.00;0.00;;;;;;;27.20;50.25;101648.56;5051106;28;20032;-73
2023/06/17 08:31:48;;;;;;;0.00;0.00;;;;;;;27.50;49.99;101644.16;5051613;28;20052;-74
2023/06/17 08:34:13;;;;;;;0.00;0.00;;;;;;;27.72;49.77;101636.59;5051098;28;20033;-72
2023/06/17 08:36:42;;;;;;;0.00;0.00;;;;;;;27.38;49.66;101639.22;5032417;28;20421;-73
2023/06/17 08:39:10;;;;;;;0.00;0.00;;;;;;;27.61;47.95;101635.28;5050583;28;20496;-73
2023/06/17 08:41:41;;;;;;;0.00;0.00;;;;;;;27.28;48.35;101641.44;5045039;28;20076;-72
2023/06/17 08:44:10;;;;;;;0.00;0.00;;;;;;;27.83;45.41;101630.78;5029934;28;20521;-74
2023/06/17 08:46:36;;;;;;;0.00;0.00;;;;;;;27.54;48.45;101639.63;5039923;28;20025;-72
2023/06/17 08:49:02;;;;;;;0.00;0.00;;;;;;;28.11;46.72;101643.25;5039092;28;20154;-73
2023/06/17 08:51:28;;;;;;;0.00;0.00;;;;;;;27.81;48.10;101644.94;5039965;28;20025;-72
2023/06/17 08:53:54;;;;;;;0.00;0.00;;;;;;;27.91;47.89;101644.59;5037752;28;20071;-75
2023/06/17 08:56:20;;;;;;;0.00;0.00;;;;;;;28.09;46.30;101648.28;5024615;28;20033;-74
2023/06/17 08:58:45;;;;;;;0.00;0.00;;;;;;;27.47;48.40;101648.38;5030513;28;20048;-74
2023/06/17 09:01:12;;;;;;;0.00;0.00;;;;;;;28.26;46.42;101640.00;5013517;28;20040;-73
2023/06/17 09:03:39;;;;;;;0.00;0.00;;;;;;;28.51;45.59;101637.22;5026834;28;20037;-73
2023/06/17 09:06:45;;;;;;;0.00;0.00;;;;;;;28.81;44.28;101637.38;5048531;28;20095;-74
2023/06/17 09:09:11;;;;;;;0.00;0.00;;;;;;;28.48;45.79;101639.84;4967037;28;20058;-73
2023/06/17 09:11:37;;;;;;;0.00;0.00;;;;;;;29.17;43.65;101641.41;4967932;28;20541;-72
2023/06/17 09:14:03;;;;;;;0.00;0.00;;;;;;;28.55;44.51;101640.19;4968626;28;20050;-73
2023/06/17 09:16:34;;;;;;;0.00;0.00;;;;;;;29.16;43.68;101637.00;4973521;28;20026;-73
2023/06/17 09:19:08;;;;;;;0.00;0.00;;;;;;;29.03;43.64;101634.41;4976033;28;20042;-73
2023/06/17 09:21:35;;;;;;;0.00;0.00;;;;;;;29.75;42.65;101634.34;4977765;28;20046;-74
2023/06/17 09:24:02;;;;;;;0.00;0.00;;;;;;;29.76;42.70;101641.50;4982256;28;20084;-74
2023/06/17 09:26:38;;;;;;;0.00;0.00;;;;;;;29.76;41.95;101644.28;4982234;28;20588;-72
2023/06/17 09:29:06;;;;;;;0.00;0.00;;;;;;;29.62;41.96;101643.66;4981982;28;20491;-70
2023/06/17 09:31:35;;;;;;;0.00;0.00;;;;;;;29.43;42.44;101639.34;4992235;28;20026;-71
2023/06/17 09:34:03;;;;;;;0.00;0.00;;;;;;;29.76;42.00;101641.50;4991410;28;20046;-71
2023/06/17 09:36:29;;;;;;;0.00;0.00;;;;;;;30.05;41.63;101642.28;4975575;28;20054;-71
2023/06/17 09:38:55;;;;;;;0.00;0.00;;;;;;;29.70;41.80;101640.03;4978572;28;20047;-71
2023/06/17 09:41:20;;;;;;;0.00;0.00;;;;;;;29.58;43.02;101639.94;5049823;28;20045;-73
2023/06/17 09:43:53;;;;;;;0.00;0.00;;;;;;;29.44;41.50;101640.97;5031826;28;20021;-73
2023/06/17 09:46:29;;;;;;;0.00;0.00;;;;;;;30.70;39.44;101641.63;5033605;28;20037;-73
2023/06/17 09:48:55;;;;;;;0.00;0.00;;;;;;;30.12;39.19;101637.03;5044944;28;20035;-74
2023/06/17 09:51:21;;;;;;;0.00;0.00;;;;;;;29.94;38.09;101637.47;5060080;28;20064;-72
2023/06/17 09:53:49;;;;;;;0.00;0.00;;;;;;;30.86;37.87;101647.41;5052241;28;20043;-73
2023/06/17 09:56:15;;;;;;;0.00;0.00;;;;;;;30.54;36.24;101637.06;5057560;28;20480;-72
2023/06/17 09:58:42;;;;;;;0.00;0.00;;;;;;;30.76;36.15;101642.25;5062814;28;20032;-71
2023/06/17 10:01:09;;;;;;;0.00;0.00;;;;;;;30.65;36.58;101646.56;5066659;28;20040;-71
2023/06/17 10:03:37;;;;;;;0.00;0.00;;;;;;;30.36;37.31;101638.34;5060769;28;20037;-70
2023/06/17 10:06:11;;;;;;;0.00;0.00;;;;;;;29.92;36.98;101629.50;5061042;28;20098;-76
2023/06/17 10:08:39;;;;;;;0.00;0.00;;;;;;;30.26;36.52;101634.81;5065508;28;20045;-75
2023/06/17 10:11:05;;;;;;;0.00;0.00;;;;;;;30.00;37.84;101642.50;5055741;28;20471;-71
2023/06/17 10:13:36;;;;;;;0.00;0.00;;;;;;;30.92;37.11;101640.44;5057104;28;20021;-73
2023/06/17 10:16:04;;;;;;;0.00;0.00;;;;;;;30.28;37.63;101640.03;5056517;28;20092;-75
2023/06/17 10:18:33;;;;;;;0.00;0.00;;;;;;;30.16;37.26;101640.75;5057154;28;20052;-74
2023/06/17 10:21:02;;;;;;;0.00;0.00;;;;;;;30.35;36.72;101636.72;5061892;28;20047;-74
2023/06/17 10:23:28;;;;;;;0.00;0.00;;;;;;;30.71;36.40;101646.03;5056097;28;20120;-74
2023/06/17 10:25:54;;;;;;;0.00;0.00;;;;;;;30.91;36.43;101636.88;5063339;28;20033;-74
2023/06/17 10:28:19;;;;;;;0.00;0.00;;;;;;;31.62;35.43;101639.31;5058842;28;20056;-75
2023/06/17 10:30:46;;;;;;;0.00;0.00;;;;;;;32.13;33.84;101633.03;5061640;28;20036;-74
2023/06/17 10:33:11;;;;;;;0.00;0.00;;;;;;;31.84;34.75;101631.31;5058112;28;20041;-75
2023/06/17 10:35:42;;;;;;;0.00;0.00;;;;;;;31.08;35.68;101633.91;5064222;28;20029;-74
2023/06/17 10:38:09;;;;;;;0.00;0.00;;;;;;;31.77;34.62;101633.88;5066117;28;20040;-74
2023/06/17 10:40:46;;;;;;;0.00;0.00;;;;;;;32.12;32.51;101638.97;5065982;28;20060;-74
2023/06/17 10:43:13;;;;;;;0.00;0.00;;;;;;;31.98;33.14;101628.19;5054805;28;20052;-74
2023/06/17 10:45:56;;;;;;;0.00;0.00;;;;;;;31.82;33.42;101625.28;5046526;28;20140;-73
2023/06/17 10:48:29;;;;;;;0.00;0.00;;;;;;;31.32;32.49;101624.81;5057555;28;20044;-71
2023/06/17 10:51:00;;;;;;;0.00;0.00;;;;;;;31.47;32.02;101624.13;5054703;28;20512;-74
2023/06/17 10:53:36;;;;;;;0.00;0.00;;;;;;;31.52;32.94;101618.38;5053379;28;20662;-75
2023/06/17 10:56:03;;;;;;;0.00;0.00;;;;;;;31.83;31.41;101621.34;5058261;28;20024;-75
2023/06/17 10:58:35;;;;;;;0.00;0.00;;;;;;;32.42;32.14;101609.63;5053866;28;20020;-77
2023/06/17 11:01:02;;;;;;;0.00;0.00;;;;;;;32.83;29.97;101610.06;5054146;28;20111;-75
2023/06/17 11:03:28;;;;;;;0.00;0.00;;;;;;;32.29;31.23;101610.84;5050941;28;20043;-74
2023/06/17 11:05:59;;;;;;;0.00;0.00;;;;;;;31.79;31.33;101616.84;5055711;28;20617;-74
2023/06/17 11:08:25;;;;;;;0.00;0.00;;;;;;;32.21;31.00;101603.47;5055143;28;20036;-75
2023/06/17 11:10:50;;;;;;;0.00;0.00;;;;;;;32.25;31.02;101621.06;5055132;28;20032;-72
2023/06/17 11:13:20;;;;;;;0.00;0.00;;;;;;;32.65;31.14;101605.97;5035751;28;20388;-75
2023/06/17 11:15:46;;;;;;;0.00;0.00;;;;;;;32.41;30.34;101608.03;5058545;28;20033;-74
2023/06/17 11:18:11;;;;;;;0.00;0.00;;;;;;;31.95;30.57;101606.66;5054293;28;20074;-73
2023/06/17 11:20:37;;;;;;;0.00;0.00;;;;;;;32.78;29.58;101606.72;5057289;28;20047;-76
2023/06/17 11:23:03;;;;;;;0.05;0.00;;;;;;;32.26;30.24;101604.00;5054305;28;20021;-74